Time;durP1;ratioP1;P1;durP2;ratioP2;P2;SDS_P1;SDS_P2;PMS_P1;PMS_P2;Temp;Humidity;BMP_temperature;BMP_pressure;BME280_temperature;BME280_humidity;BME280_pressure;Samples;Min_cycle;Max_cycle;Signal;HPM_P1;HPM_P2
2023/12/17 00:02:20;;;;;;;;;;;26.30;99.90;;;;;;4967262;28;19921;-69
2023/12/17 00:04:47;;;;;;;;;;;26.40;99.90;;;;;;4990346;28;20041;-69
2023/12/17 00:07:14;;;;;;;;;;;26.30;99.90;;;;;;4965263;28;19918;-69
2023/12/17 00:09:41;;;;;;;;;;;26.40;99.90;;;;;;4966999;28;20362;-70
2023/12/17 00:12:08;;;;;;;;;;;26.60;99.90;;;;;;4965024;28;19922;-69
2023/12/17 00:14:34;;;;;;;;;;;27.00;99.90;;;;;;4963009;28;20019;-72
2023/12/17 00:17:01;;;;;;;;;;;27.10;99.90;;;;;;4972066;28;19919;-70
2023/12/17 00:19:28;;;;;;;;;;;27.00;99.80;;;;;;4963850;28;19918;-74
2023/12/17 00:21:54;;;;;;;;;;;27.10;99.90;;;;;;4963058;28;20375;-71
2023/12/17 00:24:21;;;;;;;;;;;27.20;99.80;;;;;;4961488;28;19914;-69
2023/12/17 00:26:47;;;;;;;;;;;27.20;99.30;;;;;;4967074;28;20399;-72
2023/12/17 00:29:14;;;;;;;;;;;27.20;99.20;;;;;;4965704;28;19923;-72
2023/12/17 00:31:41;;;;;;;;;;;27.10;99.60;;;;;;4966026;28;19933;-70
2023/12/17 00:34:07;;;;;;;;;;;27.00;99.50;;;;;;4963469;28;19926;-76
2023/12/17 00:36:34;;;;;;;;;;;27.20;99.40;;;;;;4962624;28;19918;-70
2023/12/17 00:39:00;;;;;;;;;;;27.20;99.30;;;;;;4965465;28;20055;-71
2023/12/17 00:41:27;;;;;;;;;;;27.40;99.40;;;;;;4968683;28;19989;-77
2023/12/17 00:43:54;;;;;;;;;;;27.30;99.10;;;;;;4965247;28;19915;-83
2023/12/17 00:46:20;;;;;;;;;;;27.20;99.30;;;;;;4979204;28;19914;-81
2023/12/17 00:48:47;;;;;;;;;;;27.60;99.10;;;;;;4961858;28;20007;-81
2023/12/17 00:51:14;;;;;;;;;;;27.90;97.90;;;;;;4968176;28;20367;-72
2023/12/17 00:53:40;;;;;;;;;;;28.10;97.70;;;;;;4969482;28;20056;-85
2023/12/17 00:56:07;;;;;;;;;;;28.20;97.30;;;;;;4967042;28;20013;-74
2023/12/17 00:58:34;;;;;;;;;;;28.00;97.60;;;;;;4965564;28;19952;-72
2023/12/17 01:01:01;;;;;;;;;;;28.00;97.50;;;;;;4959892;28;19910;-75
2023/12/17 01:03:28;;;;;;;;;;;28.00;97.60;;;;;;4966444;28;19914;-77
2023/12/17 01:05:55;;;;;;;;;;;28.00;97.90;;;;;;4969928;28;19914;-74
2023/12/17 01:08:21;;;;;;;;;;;28.00;97.70;;;;;;4968058;28;20295;-70
2023/12/17 01:10:48;;;;;;;;;;;28.10;97.40;;;;;;4971847;28;19911;-74
2023/12/17 01:13:14;;;;;;;;;;;28.20;97.20;;;;;;4971330;28;19914;-70
2023/12/17 01:15:41;;;;;;;;;;;28.30;97.20;;;;;;4972615;28;20366;-80
2023/12/17 01:18:08;;;;;;;;;;;28.30;96.10;;;;;;4972517;28;19915;-74
2023/12/17 01:20:34;;;;;;;;;;;28.30;95.70;;;;;;4961683;28;20314;-84
2023/12/17 01:23:01;;;;;;;;;;;28.00;96.60;;;;;;4966859;28;19922;-80
2023/12/17 01:25:28;;;;;;;;;;;28.30;96.10;;;;;;4970942;28;20436;-76
2023/12/17 01:27:54;;;;;;;;;;;28.40;95.40;;;;;;4970018;28;19910;-70
2023/12/17 01:30:21;;;;;;;;;;;28.40;95.60;;;;;;4971942;28;19918;-69
2023/12/17 01:32:48;;;;;;;;;;;28.20;95.30;;;;;;4972458;28;20513;-76
2023/12/17 01:35:17;;;;;;;;;;;28.20;94.90;;;;;;4970690;28;20006;-77
2023/12/17 01:37:44;;;;;;;;;;;28.20;95.10;;;;;;4970811;28;19961;-80
2023/12/17 01:40:11;;;;;;;;;;;28.60;94.90;;;;;;4971822;28;20511;-71
2023/12/17 01:42:37;;;;;;;;;;;28.80;94.80;;;;;;4964653;28;19965;-71
2023/12/17 01:45:04;;;;;;;;;;;29.10;93.90;;;;;;4953054;28;20013;-82
2023/12/17 01:47:31;;;;;;;;;;;29.40;93.80;;;;;;4964565;28;19911;-71
2023/12/17 01:49:57;;;;;;;;;;;29.70;93.00;;;;;;4972322;28;19922;-81
2023/12/17 01:52:24;;;;;;;;;;;29.90;92.80;;;;;;4970251;28;19917;-79
2023/12/17 01:54:51;;;;;;;;;;;30.00;92.50;;;;;;4969925;28;19914;-75
2023/12/17 01:57:18;;;;;;;;;;;30.10;92.70;;;;;;4965537;28;20382;-73
2023/12/17 01:59:46;;;;;;;;;;;29.80;92.90;;;;;;4961551;28;19914;-73
2023/12/17 02:02:13;;;;;;;;;;;30.00;92.60;;;;;;4961991;28;20034;-77
2023/12/17 02:04:40;;;;;;;;;;;30.20;91.80;;;;;;4965754;28;19921;-70
2023/12/17 02:07:07;;;;;;;;;;;30.30;92.60;;;;;;4971428;28;20318;-72
2023/12/17 02:09:33;;;;;;;;;;;31.00;91.70;;;;;;4968108;28;19922;-78
2023/12/17 02:12:00;;;;;;;;;;;30.90;90.90;;;;;;4966861;28;20009;-81
2023/12/17 02:14:27;;;;;;;;;;;30.30;91.40;;;;;;4972997;28;20286;-78
2023/12/17 02:16:53;;;;;;;;;;;30.40;91.10;;;;;;4971522;28;19937;-71
2023/12/17 02:19:20;;;;;;;;;;;30.60;90.90;;;;;;4965459;28;20017;-70
2023/12/17 02:21:47;;;;;;;;;;;30.00;90.80;;;;;;4952100;28;19922;-72
2023/12/17 02:24:13;;;;;;;;;;;29.60;91.70;;;;;;4955356;28;19921;-74
2023/12/17 02:26:43;;;;;;;;;;;29.50;91.60;;;;;;4969290;28;20340;-72
2023/12/17 02:29:10;;;;;;;;;;;29.70;91.70;;;;;;4952310;28;19922;-74
2023/12/17 02:31:36;;;;;;;;;;;29.90;91.60;;;;;;4953807;28;20275;-78
2023/12/17 02:34:03;;;;;;;;;;;30.20;91.70;;;;;;4972116;28;20315;-75
2023/12/17 02:36:30;;;;;;;;;;;30.50;90.70;;;;;;4965084;28;20003;-78
2023/12/17 02:38:56;;;;;;;;;;;30.40;90.80;;;;;;4972073;28;19910;-80
2023/12/17 02:41:23;;;;;;;;;;;30.90;90.40;;;;;;4971685;28;19924;-81
2023/12/17 02:43:53;;;;;;;;;;;30.90;90.40;;;;;;4971672;28;19910;-73
2023/12/17 02:46:21;;;;;;;;;;;31.10;90.20;;;;;;4969721;28;20355;-82
2023/12/17 02:48:47;;;;;;;;;;;31.00;89.80;;;;;;4970858;28;19925;-74
2023/12/17 02:51:14;;;;;;;;;;;31.20;89.50;;;;;;4970485;28;19917;-83
2023/12/17 02:53:41;;;;;;;;;;;31.60;88.10;;;;;;4969302;28;19917;-80
2023/12/17 02:56:08;;;;;;;;;;;31.40;88.90;;;;;;4968194;28;19950;-74
2023/12/17 02:58:34;;;;;;;;;;;30.60;88.90;;;;;;4970392;28;19910;-71
2023/12/17 03:01:01;;;;;;;;;;;30.30;90.10;;;;;;4971314;28;19986;-71
2023/12/17 03:03:27;;;;;;;;;;;30.60;89.80;;;;;;4972648;28;19968;-74
2023/12/17 03:05:54;;;;;;;;;;;31.10;89.20;;;;;;4973791;28;19914;-71
2023/12/17 03:08:21;;;;;;;;;;;31.90;88.30;;;;;;4973664;28;19925;-74
2023/12/17 03:10:47;;;;;;;;;;;32.70;86.00;;;;;;4971950;28;20287;-74
2023/12/17 03:13:14;;;;;;;;;;;33.30;84.90;;;;;;4970891;28;19918;-74
2023/12/17 03:15:40;;;;;;;;;;;33.50;84.10;;;;;;4971016;28;19910;-71
2023/12/17 03:18:07;;;;;;;;;;;34.00;83.20;;;;;;4970163;28;19921;-79
2023/12/17 03:20:34;;;;;;;;;;;34.00;83.00;;;;;;4970513;28;19914;-70
2023/12/17 03:23:00;;;;;;;;;;;34.50;82.40;;;;;;4972925;28;19926;-70
2023/12/17 03:25:27;;;;;;;;;;;35.40;79.30;;;;;;4978642;28;19913;-70
2023/12/17 03:27:54;;;;;;;;;;;35.70;77.40;;;;;;4967461;28;19914;-76
2023/12/17 03:30:20;;;;;;;;;;;35.90;76.00;;;;;;4959709;28;19918;-69
2023/12/17 03:32:47;;;;;;;;;;;35.80;77.30;;;;;;4963115;28;19914;-69
2023/12/17 03:35:13;;;;;;;;;;;36.00;76.60;;;;;;4959838;28;19910;-68
2023/12/17 03:37:40;;;;;;;;;;;36.60;75.80;;;;;;4960331;28;19917;-71
2023/12/17 03:40:07;;;;;;;;;;;36.30;74.80;;;;;;4961333;28;19948;-79
2023/12/17 03:42:34;;;;;;;;;;;35.40;75.90;;;;;;4972789;28;19915;-74
2023/12/17 03:45:01;;;;;;;;;;;35.30;76.70;;;;;;4960869;28;19910;-71
2023/12/17 03:47:27;;;;;;;;;;;35.60;75.50;;;;;;4959533;28;20334;-71
2023/12/17 03:49:54;;;;;;;;;;;36.60;74.30;;;;;;4963727;28;20303;-73
2023/12/17 03:52:21;;;;;;;;;;;36.60;74.00;;;;;;4962358;28;19918;-73
2023/12/17 03:54:47;;;;;;;;;;;37.20;72.10;;;;;;4962041;28;19929;-69
2023/12/17 03:57:14;;;;;;;;;;;37.00;73.20;;;;;;4966999;28;19910;-77
2023/12/17 03:59:41;;;;;;;;;;;37.30;72.90;;;;;;4963119;28;19918;-69
2023/12/17 04:02:07;;;;;;;;;;;36.40;71.80;;;;;;4960300;28;19917;-69
2023/12/17 04:04:34;;;;;;;;;;;34.90;74.60;;;;;;4958201;28;19922;-70
2023/12/17 04:07:00;;;;;;;;;;;35.20;73.30;;;;;;4959839;28;19993;-67
2023/12/17 04:09:27;;;;;;;;;;;35.10;74.90;;;;;;4960031;28;19926;-68
2023/12/17 04:11:54;;;;;;;;;;;36.00;73.40;;;;;;4958467;28;19914;-73
2023/12/17 04:14:20;;;;;;;;;;;35.50;73.80;;;;;;4964717;28;19969;-70
2023/12/17 04:16:47;;;;;;;;;;;35.20;73.80;;;;;;4978619;28;19956;-70
2023/12/17 04:19:13;;;;;;;;;;;35.50;73.40;;;;;;4959248;28;20001;-69
2023/12/17 04:21:40;;;;;;;;;;;36.30;72.10;;;;;;4970378;28;19922;-70
2023/12/17 04:24:07;;;;;;;;;;;36.40;73.40;;;;;;4970411;28;19937;-71
2023/12/17 04:26:34;;;;;;;;;;;36.30;71.30;;;;;;4969005;28;19918;-69
2023/12/17 04:29:01;;;;;;;;;;;36.40;70.90;;;;;;4970390;28;19922;-70
2023/12/17 04:31:28;;;;;;;;;;;35.60;72.20;;;;;;4971086;28;19917;-70
2023/12/17 04:33:54;;;;;;;;;;;34.60;73.50;;;;;;4954001;28;19922;-71
2023/12/17 04:36:21;;;;;;;;;;;35.00;76.30;;;;;;4968543;28;19984;-70
2023/12/17 04:38:48;;;;;;;;;;;36.30;72.50;;;;;;4973669;28;19914;-73
2023/12/17 04:41:15;;;;;;;;;;;36.60;71.20;;;;;;4973260;28;19917;-75
2023/12/17 04:43:41;;;;;;;;;;;36.70;72.40;;;;;;4973146;28;19910;-73
2023/12/17 04:46:08;;;;;;;;;;;37.00;70.10;;;;;;4973211;28;19917;-68
2023/12/17 04:48:35;;;;;;;;;;;35.80;72.20;;;;;;4970307;28;20008;-70
2023/12/17 04:51:01;;;;;;;;;;;34.70;73.40;;;;;;4962156;28;19922;-73
2023/12/17 04:53:28;;;;;;;;;;;35.90;72.50;;;;;;5021518;28;19913;-70
2023/12/17 04:55:55;;;;;;;;;;;36.10;72.30;;;;;;4995772;28;20387;-75
2023/12/17 04:58:21;;;;;;;;;;;35.60;73.40;;;;;;4954308;28;20429;-75
2023/12/17 05:00:48;;;;;;;;;;;36.30;73.00;;;;;;4958778;28;19957;-71
2023/12/17 05:03:15;;;;;;;;;;;36.60;72.30;;;;;;4972787;28;19914;-71
2023/12/17 05:05:41;;;;;;;;;;;36.10;73.00;;;;;;4972566;28;19957;-71
2023/12/17 05:08:08;;;;;;;;;;;35.60;73.10;;;;;;4972345;28;20041;-70
2023/12/17 05:10:34;;;;;;;;;;;35.70;74.20;;;;;;4972651;28;20001;-70
2023/12/17 05:13:01;;;;;;;;;;;36.90;72.90;;;;;;4972603;28;19910;-70
2023/12/17 05:15:28;;;;;;;;;;;36.60;71.30;;;;;;4965743;28;19926;-75
2023/12/17 05:17:54;;;;;;;;;;;36.40;72.90;;;;;;4954293;29;19918;-72
2023/12/17 05:20:24;;;;;;;;;;;36.00;73.80;;;;;;4953916;28;19946;-71
2023/12/17 05:22:50;;;;;;;;;;;36.50;73.30;;;;;;4967840;28;20310;-71
2023/12/17 05:25:17;;;;;;;;;;;36.50;72.00;;;;;;4972551;28;19916;-72
2023/12/17 05:27:45;;;;;;;;;;;34.70;73.80;;;;;;4971675;28;19914;-73
2023/12/17 05:30:12;;;;;;;;;;;34.70;75.70;;;;;;4972556;28;19918;-74
2023/12/17 05:32:39;;;;;;;;;;;33.70;76.80;;;;;;4973229;28;19959;-70
2023/12/17 05:35:06;;;;;;;;;;;33.30;77.90;;;;;;4972680;28;20367;-70
2023/12/17 05:37:33;;;;;;;;;;;33.60;77.80;;;;;;4968551;28;19922;-80
2023/12/17 05:39:59;;;;;;;;;;;33.10;78.30;;;;;;4952707;28;20229;-70
2023/12/17 05:42:26;;;;;;;;;;;32.50;80.60;;;;;;4953539;28;20075;-75
2023/12/17 05:44:53;;;;;;;;;;;32.70;81.00;;;;;;4954894;28;20504;-73
2023/12/17 05:47:19;;;;;;;;;;;32.30;80.30;;;;;;4972665;28;19941;-72
2023/12/17 05:49:46;;;;;;;;;;;31.70;81.30;;;;;;4972366;28;19922;-70
2023/12/17 05:52:13;;;;;;;;;;;31.00;83.40;;;;;;4956235;28;19969;-77
2023/12/17 05:54:43;;;;;;;;;;;31.10;84.50;;;;;;4960168;28;19953;-69
2023/12/17 05:57:10;;;;;;;;;;;30.80;85.00;;;;;;4972256;28;19918;-75
2023/12/17 05:59:37;;;;;;;;;;;30.40;85.70;;;;;;4971969;28;19933;-74
2023/12/17 06:02:03;;;;;;;;;;;30.00;86.70;;;;;;4971604;28;19916;-70
2023/12/17 06:04:30;;;;;;;;;;;29.70;88.40;;;;;;4971736;28;19910;-72
2023/12/17 06:06:57;;;;;;;;;;;29.80;89.00;;;;;;4971622;28;19910;-73
2023/12/17 06:09:24;;;;;;;;;;;29.70;88.50;;;;;;4971941;28;19918;-75
2023/12/17 06:11:50;;;;;;;;;;;29.30;88.50;;;;;;4971958;28;19963;-74
2023/12/17 06:14:18;;;;;;;;;;;29.20;90.40;;;;;;4972499;28;20355;-73
2023/12/17 06:16:45;;;;;;;;;;;29.40;90.20;;;;;;5044437;28;19916;-72
2023/12/17 06:19:13;;;;;;;;;;;29.40;90.50;;;;;;5053257;28;19962;-71
2023/12/17 06:21:42;;;;;;;;;;;29.80;89.30;;;;;;4963354;28;19922;-68
2023/12/17 06:24:09;;;;;;;;;;;29.60;90.00;;;;;;4952024;28;19959;-70
2023/12/17 06:26:40;;;;;;;;;;;29.20;90.30;;;;;;4968249;28;19917;-70
2023/12/17 06:29:12;;;;;;;;;;;28.80;90.80;;;;;;4971247;28;19971;-72
2023/12/17 06:31:42;;;;;;;;;;;28.70;91.50;;;;;;4970681;28;20028;-69
2023/12/17 06:34:09;;;;;;;;;;;28.70;91.40;;;;;;4971335;28;19915;-71
2023/12/17 06:36:35;;;;;;;;;;;28.70;91.20;;;;;;4970954;28;19937;-71
2023/12/17 06:39:02;;;;;;;;;;;28.40;91.70;;;;;;4971231;28;19932;-71
2023/12/17 06:41:29;;;;;;;;;;;28.50;92.00;;;;;;4953875;28;20290;-70
2023/12/17 06:43:56;;;;;;;;;;;28.50;92.30;;;;;;4969432;28;20358;-73
2023/12/17 06:46:23;;;;;;;;;;;28.70;91.60;;;;;;4971003;28;20002;-70
2023/12/17 06:48:50;;;;;;;;;;;28.60;92.00;;;;;;4970904;28;20418;-72
2023/12/17 06:51:16;;;;;;;;;;;28.50;91.70;;;;;;4970973;28;19910;-71
2023/12/17 06:53:43;;;;;;;;;;;28.40;92.30;;;;;;4972340;28;19910;-77
2023/12/17 06:56:09;;;;;;;;;;;28.20;92.50;;;;;;4971299;28;19914;-72
2023/12/17 06:58:36;;;;;;;;;;;28.40;92.90;;;;;;4970847;28;20424;-75
2023/12/17 07:01:03;;;;;;;;;;;28.50;92.50;;;;;;4971450;28;19910;-75
2023/12/17 07:03:29;;;;;;;;;;;28.70;92.20;;;;;;4971421;28;19918;-71
2023/12/17 07:05:58;;;;;;;;;;;28.70;92.40;;;;;;4970484;28;19918;-74
2023/12/17 07:08:25;;;;;;;;;;;28.70;92.40;;;;;;4971812;28;19921;-74
2023/12/17 07:10:53;;;;;;;;;;;28.60;92.30;;;;;;4971953;28;20299;-75
2023/12/17 07:13:20;;;;;;;;;;;28.20;93.00;;;;;;4971883;28;19918;-73
2023/12/17 07:15:46;;;;;;;;;;;28.10;92.90;;;;;;4971590;28;19910;-70
2023/12/17 07:18:15;;;;;;;;;;;27.80;93.40;;;;;;4971405;28;19910;-74
2023/12/17 07:20:41;;;;;;;;;;;27.60;94.10;;;;;;4969759;28;20021;-73
2023/12/17 07:23:08;;;;;;;;;;;27.70;94.40;;;;;;4970630;28;19930;-72
2023/12/17 07:25:34;;;;;;;;;;;27.90;94.20;;;;;;4970711;28;20052;-70
2023/12/17 07:28:01;;;;;;;;;;;27.80;93.90;;;;;;4966756;28;20393;-72
2023/12/17 07:30:28;;;;;;;;;;;27.50;93.90;;;;;;4951844;28;19930;-72
2023/12/17 07:32:55;;;;;;;;;;;27.20;94.60;;;;;;4951607;28;19964;-72
2023/12/17 07:35:21;;;;;;;;;;;26.90;95.40;;;;;;4957112;28;20320;-75
2023/12/17 07:37:48;;;;;;;;;;;26.80;95.50;;;;;;4970218;28;19910;-72
2023/12/17 07:40:15;;;;;;;;;;;26.80;95.20;;;;;;4970112;28;20422;-71
2023/12/17 07:42:41;;;;;;;;;;;26.60;95.90;;;;;;4970570;28;19914;-69
2023/12/17 07:45:09;;;;;;;;;;;26.50;96.00;;;;;;4970698;28;19914;-73
2023/12/17 07:47:36;;;;;;;;;;;26.30;96.20;;;;;;4969082;28;19921;-72
2023/12/17 07:50:02;;;;;;;;;;;26.10;96.70;;;;;;4965335;28;19928;-72
2023/12/17 07:52:29;;;;;;;;;;;26.20;96.50;;;;;;4958844;28;19936;-73
2023/12/17 07:54:56;;;;;;;;;;;26.00;96.70;;;;;;4963565;28;19914;-71
2023/12/17 07:57:23;;;;;;;;;;;25.90;96.80;;;;;;4974088;28;19912;-69
2023/12/17 07:59:51;;;;;;;;;;;25.70;97.20;;;;;;4957712;28;19919;-72
2023/12/17 08:02:17;;;;;;;;;;;25.80;97.20;;;;;;4962825;28;19918;-70
2023/12/17 08:04:45;;;;;;;;;;;25.70;97.30;;;;;;4978684;28;20371;-77
2023/12/17 08:07:12;;;;;;;;;;;25.70;97.40;;;;;;4966421;28;19917;-68
2023/12/17 08:09:39;;;;;;;;;;;25.60;97.30;;;;;;4978399;28;20294;-69
2023/12/17 08:12:06;;;;;;;;;;;25.60;97.60;;;;;;4961474;28;19959;-77
2023/12/17 08:14:32;;;;;;;;;;;25.60;97.30;;;;;;4974128;28;19915;-72
2023/12/17 08:16:59;;;;;;;;;;;25.40;97.40;;;;;;4978367;28;20330;-71
2023/12/17 08:19:26;;;;;;;;;;;25.30;97.60;;;;;;4979813;28;19914;-70
2023/12/17 08:21:53;;;;;;;;;;;25.20;97.70;;;;;;4962443;28;19923;-74
2023/12/17 08:24:19;;;;;;;;;;;25.30;98.00;;;;;;4968617;28;20005;-74
2023/12/17 08:26:46;;;;;;;;;;;25.20;97.40;;;;;;4974266;28;19959;-79
2023/12/17 08:29:13;;;;;;;;;;;25.10;97.80;;;;;;4977680;28;19931;-71
2023/12/17 08:31:44;;;;;;;;;;;25.10;97.90;;;;;;4969718;28;19918;-72
2023/12/17 08:34:11;;;;;;;;;;;25.20;97.90;;;;;;4966817;28;20008;-74
2023/12/17 08:36:41;;;;;;;;;;;25.30;97.70;;;;;;4963552;28;19979;-71
2023/12/17 08:39:11;;;;;;;;;;;25.40;97.70;;;;;;4977588;28;19918;-75
2023/12/17 08:41:38;;;;;;;;;;;25.40;97.60;;;;;;4964575;28;19925;-76
2023/12/17 08:44:07;;;;;;;;;;;25.40;97.60;;;;;;4963747;28;19922;-73
2023/12/17 08:46:34;;;;;;;;;;;25.30;97.80;;;;;;4962781;28;20387;-73
2023/12/17 08:49:02;;;;;;;;;;;25.10;98.10;;;;;;4966610;28;19929;-71
2023/12/17 08:51:29;;;;;;;;;;;25.00;98.40;;;;;;4959262;28;19910;-74
2023/12/17 08:53:56;;;;;;;;;;;24.90;98.50;;;;;;4966577;28;19914;-74
2023/12/17 08:56:22;;;;;;;;;;;24.90;98.70;;;;;;4960538;28;19914;-74
2023/12/17 08:58:49;;;;;;;;;;;24.90;98.30;;;;;;4969851;28;19925;-73
2023/12/17 09:01:17;;;;;;;;;;;24.80;98.70;;;;;;4962983;28;19971;-73
2023/12/17 09:03:44;;;;;;;;;;;24.80;99.10;;;;;;4966829;28;19914;-73
2023/12/17 09:06:13;;;;;;;;;;;24.90;98.90;;;;;;4963668;28;19914;-75
2023/12/17 09:08:40;;;;;;;;;;;24.90;98.70;;;;;;4963446;28;19933;-72
2023/12/17 09:11:07;;;;;;;;;;;24.90;98.60;;;;;;4963239;28;19984;-71
2023/12/17 09:13:33;;;;;;;;;;;24.90;98.60;;;;;;4965272;28;20318;-72
2023/12/17 09:16:00;;;;;;;;;;;24.80;98.60;;;;;;4966697;28;19914;-76
2023/12/17 09:18:27;;;;;;;;;;;24.80;98.70;;;;;;4960172;28;20376;-72
2023/12/17 09:20:53;;;;;;;;;;;24.80;98.90;;;;;;4957325;28;19942;-72
2023/12/17 09:23:20;;;;;;;;;;;24.80;98.70;;;;;;4960127;28;19973;-71
2023/12/17 09:25:46;;;;;;;;;;;24.90;99.10;;;;;;4968460;28;19914;-73
2023/12/17 09:28:13;;;;;;;;;;;24.90;98.80;;;;;;4968323;28;19910;-73
2023/12/17 09:30:40;;;;;;;;;;;24.90;98.80;;;;;;4960168;28;20386;-72
2023/12/17 09:33:07;;;;;;;;;;;24.90;98.90;;;;;;4964668;28;19917;-73
2023/12/17 09:35:37;;;;;;;;;;;24.90;98.90;;;;;;4977031;28;19909;-78
2023/12/17 09:38:04;;;;;;;;;;;24.90;98.90;;;;;;4962043;28;19914;-74
2023/12/17 09:40:32;;;;;;;;;;;24.90;98.90;;;;;;4965580;28;19911;-72
2023/12/17 09:43:00;;;;;;;;;;;24.80;99.20;;;;;;4965676;28;19914;-72
2023/12/17 09:45:28;;;;;;;;;;;24.80;99.30;;;;;;4963559;28;19997;-76
2023/12/17 09:47:54;;;;;;;;;;;24.80;99.60;;;;;;4962404;28;20378;-72
2023/12/17 09:50:24;;;;;;;;;;;24.60;99.90;;;;;;4965724;28;19925;-70
2023/12/17 09:52:50;;;;;;;;;;;24.60;99.90;;;;;;4963918;28;19917;-74
2023/12/17 09:55:18;;;;;;;;;;;24.50;99.90;;;;;;4966057;28;19917;-71
2023/12/17 09:57:44;;;;;;;;;;;24.50;99.90;;;;;;4962949;28;19922;-71
2023/12/17 10:00:12;;;;;;;;;;;24.50;99.90;;;;;;5011975;28;19915;-71
2023/12/17 10:02:41;;;;;;;;;;;24.50;99.90;;;;;;4993362;28;19941;-70
2023/12/17 10:05:08;;;;;;;;;;;24.60;99.90;;;;;;4963992;28;20256;-72
2023/12/17 10:07:38;;;;;;;;;;;24.50;99.90;;;;;;4963501;28;19914;-72
2023/12/17 10:10:05;;;;;;;;;;;24.50;99.90;;;;;;4966180;28;19924;-75
2023/12/17 10:12:31;;;;;;;;;;;24.60;99.90;;;;;;4962804;28;19924;-71
2023/12/17 10:14:58;;;;;;;;;;;24.60;99.90;;;;;;4966313;28;19911;-71
2023/12/17 10:17:25;;;;;;;;;;;24.60;99.90;;;;;;4962513;28;20001;-73
2023/12/17 10:19:53;;;;;;;;;;;24.70;99.90;;;;;;4981640;28;19923;-69
2023/12/17 10:22:20;;;;;;;;;;;24.70;99.90;;;;;;5009314;28;19931;-70
2023/12/17 10:24:46;;;;;;;;;;;24.50;99.90;;;;;;4977459;28;19961;-69
2023/12/17 10:27:20;;;;;;;;;;;24.50;99.90;;;;;;4973104;28;19921;-81
2023/12/17 10:29:52;;;;;;;;;;;24.50;99.90;;;;;;4972516;28;19989;-77
2023/12/17 10:32:26;;;;;;;;;;;24.50;99.90;;;;;;4974638;28;19931;-71
2023/12/17 10:34:53;;;;;;;;;;;24.50;99.90;;;;;;4972944;28;20013;-75
2023/12/17 10:37:21;;;;;;;;;;;24.50;99.90;;;;;;4973958;28;20290;-77
2023/12/17 10:39:51;;;;;;;;;;;24.50;99.90;;;;;;4977224;28;20001;-75
2023/12/17 10:42:18;;;;;;;;;;;24.40;99.90;;;;;;4974777;28;19914;-79
2023/12/17 10:44:47;;;;;;;;;;;24.30;99.90;;;;;;5017275;28;20389;-79
2023/12/17 10:47:19;;;;;;;;;;;24.30;99.90;;;;;;4977556;28;19914;-73
2023/12/17 10:49:46;;;;;;;;;;;24.40;99.90;;;;;;4974097;28;19929;-72
2023/12/17 10:52:16;;;;;;;;;;;24.30;99.90;;;;;;4976557;28;19910;-78
2023/12/17 10:54:43;;;;;;;;;;;24.30;99.90;;;;;;4982208;28;19910;-83
2023/12/17 10:57:12;;;;;;;;;;;24.20;99.90;;;;;;4983989;28;19917;-71
2023/12/17 10:59:40;;;;;;;;;;;24.10;99.90;;;;;;4978328;28;19953;-69
2023/12/17 11:02:07;;;;;;;;;;;24.10;99.90;;;;;;5005184;28;20311;-75
2023/12/17 11:04:34;;;;;;;;;;;24.20;99.90;;;;;;4988474;28;20292;-70
2023/12/17 11:07:02;;;;;;;;;;;24.30;99.90;;;;;;4973850;28;20388;-82
2023/12/17 11:09:29;;;;;;;;;;;24.30;99.90;;;;;;4973717;28;19929;-81
2023/12/17 11:11:55;;;;;;;;;;;24.40;99.90;;;;;;4973864;28;19918;-72
2023/12/17 11:14:22;;;;;;;;;;;24.50;99.90;;;;;;4971949;28;19920;-79
2023/12/17 11:16:49;;;;;;;;;;;24.60;99.90;;;;;;4952582;28;20406;-69
2023/12/17 11:19:17;;;;;;;;;;;24.60;99.90;;;;;;4954883;28;19911;-68
2023/12/17 11:21:45;;;;;;;;;;;24.60;99.90;;;;;;4972119;28;19927;-70
2023/12/17 11:24:12;;;;;;;;;;;24.50;99.90;;;;;;4973348;28;20015;-68
2023/12/17 11:26:40;;;;;;;;;;;24.50;99.90;;;;;;4971618;28;20350;-69
2023/12/17 11:29:25;;;;;;;;;;;24.50;99.90;;;;;;4969371;28;19918;-69
2023/12/17 11:31:51;;;;;;;;;;;24.40;99.90;;;;;;4952243;28;19960;-70
2023/12/17 11:34:18;;;;;;;;;;;24.30;99.90;;;;;;4951657;28;19946;-69
2023/12/17 11:36:46;;;;;;;;;;;24.30;99.90;;;;;;4965248;28;20424;-69
2023/12/17 11:39:12;;;;;;;;;;;24.30;99.90;;;;;;4969995;28;19910;-72
2023/12/17 11:41:39;;;;;;;;;;;24.40;99.90;;;;;;4970896;28;19917;-69
2023/12/17 11:44:06;;;;;;;;;;;24.30;99.90;;;;;;4970474;28;20378;-69
2023/12/17 11:46:33;;;;;;;;;;;24.30;99.90;;;;;;4971301;28;20004;-69
2023/12/17 11:48:59;;;;;;;;;;;24.20;99.90;;;;;;4970909;28;20024;-72
2023/12/17 11:51:26;;;;;;;;;;;24.20;99.90;;;;;;4970581;28;19918;-70
2023/12/17 11:53:53;;;;;;;;;;;24.20;99.90;;;;;;4970772;28;19915;-73
2023/12/17 11:56:28;;;;;;;;;;;24.20;99.90;;;;;;4971249;28;20275;-73
2023/12/17 11:58:55;;;;;;;;;;;24.30;99.90;;;;;;4970090;28;19922;-74
2023/12/17 12:01:21;;;;;;;;;;;24.40;99.90;;;;;;4986105;28;19920;-71
2023/12/17 12:03:48;;;;;;;;;;;24.40;99.90;;;;;;4961404;28;19925;-69
2023/12/17 12:06:15;;;;;;;;;;;24.40;99.90;;;;;;4960696;28;19910;-69
2023/12/17 12:08:46;;;;;;;;;;;24.50;99.90;;;;;;4961713;28;20275;-68
2023/12/17 12:11:14;;;;;;;;;;;24.50;99.90;;;;;;4960521;28;19911;-68
2023/12/17 12:13:42;;;;;;;;;;;24.40;99.90;;;;;;4962180;28;19933;-69
2023/12/17 12:16:10;;;;;;;;;;;24.40;99.90;;;;;;4965841;28;19957;-71
2023/12/17 12:18:36;;;;;;;;;;;24.30;99.90;;;;;;4969799;28;19910;-70
2023/12/17 12:21:14;;;;;;;;;;;24.40;99.90;;;;;;4970968;28;19992;-67
2023/12/17 12:23:40;;;;;;;;;;;24.50;99.90;;;;;;4971185;28;19925;-69
2023/12/17 12:26:08;;;;;;;;;;;24.30;99.90;;;;;;4965215;28;19921;-68
2023/12/17 12:28:34;;;;;;;;;;;24.30;99.90;;;;;;4961140;28;20437;-68
2023/12/17 12:31:10;;;;;;;;;;;24.20;99.90;;;;;;4970457;28;19985;-69
2023/12/17 12:33:37;;;;;;;;;;;24.10;99.90;;;;;;4968085;28;19940;-69
2023/12/17 12:36:07;;;;;;;;;;;24.10;99.90;;;;;;4971387;28;19910;-69
2023/12/17 12:38:34;;;;;;;;;;;24.20;99.90;;;;;;4970583;28;20282;-68
2023/12/17 12:41:08;;;;;;;;;;;24.20;99.90;;;;;;4970850;28;19910;-68
2023/12/17 12:43:37;;;;;;;;;;;24.20;99.90;;;;;;4970084;28;20614;-68
2023/12/17 12:46:04;;;;;;;;;;;24.10;99.90;;;;;;4970440;28;19918;-69
2023/12/17 12:48:30;;;;;;;;;;;24.20;99.90;;;;;;4970570;28;19914;-69
2023/12/17 12:50:57;;;;;;;;;;;24.20;99.90;;;;;;4972665;28;20012;-69
2023/12/17 12:53:24;;;;;;;;;;;24.10;99.90;;;;;;4973673;28;19932;-69
2023/12/17 12:55:50;;;;;;;;;;;24.10;99.90;;;;;;4973040;28;19922;-69
2023/12/17 12:58:17;;;;;;;;;;;24.10;99.90;;;;;;4973758;28;19914;-70
2023/12/17 13:00:45;;;;;;;;;;;24.00;99.90;;;;;;4972909;28;19972;-68
2023/12/17 13:03:12;;;;;;;;;;;23.90;99.90;;;;;;4973816;28;19911;-69
2023/12/17 13:05:39;;;;;;;;;;;24.10;99.90;;;;;;4973666;28;19992;-68
2023/12/17 13:08:06;;;;;;;;;;;24.00;99.90;;;;;;4973220;28;19956;-69
2023/12/17 13:10:33;;;;;;;;;;;24.00;99.90;;;;;;4973328;28;19918;-68
2023/12/17 13:13:00;;;;;;;;;;;24.00;99.90;;;;;;4973746;28;19910;-69
2023/12/17 13:15:27;;;;;;;;;;;24.00;99.90;;;;;;4973456;28;19914;-70
2023/12/17 13:17:58;;;;;;;;;;;24.00;99.90;;;;;;4973747;28;19933;-70
2023/12/17 13:20:24;;;;;;;;;;;24.00;99.90;;;;;;4972002;28;19937;-69
2023/12/17 13:22:51;;;;;;;;;;;23.90;99.90;;;;;;4973155;28;19923;-70
2023/12/17 13:25:18;;;;;;;;;;;23.90;99.90;;;;;;4973569;28;19922;-70
2023/12/17 13:27:45;;;;;;;;;;;23.90;99.90;;;;;;4973231;28;19910;-67
2023/12/17 13:30:12;;;;;;;;;;;23.90;99.90;;;;;;4964328;28;19922;-68
2023/12/17 13:32:39;;;;;;;;;;;23.80;99.90;;;;;;4954021;28;20742;-68
2023/12/17 13:35:06;;;;;;;;;;;23.70;99.90;;;;;;4967043;28;19918;-69
2023/12/17 13:37:33;;;;;;;;;;;23.70;99.90;;;;;;4972801;28;19914;-68
2023/12/17 13:39:59;;;;;;;;;;;23.70;99.90;;;;;;4972972;28;20407;-69
2023/12/17 13:42:26;;;;;;;;;;;23.70;99.90;;;;;;4972662;28;19921;-68
2023/12/17 13:44:52;;;;;;;;;;;23.70;99.90;;;;;;4972895;28;19910;-71
2023/12/17 13:47:19;;;;;;;;;;;23.80;99.90;;;;;;4973224;28;19956;-70
2023/12/17 13:49:46;;;;;;;;;;;23.70;99.90;;;;;;4972943;28;19925;-69
2023/12/17 13:52:12;;;;;;;;;;;23.70;99.90;;;;;;4972304;28;19918;-69
2023/12/17 13:54:40;;;;;;;;;;;23.70;99.90;;;;;;4972965;28;20286;-69
2023/12/17 13:57:07;;;;;;;;;;;23.70;99.90;;;;;;4973029;28;19956;-69
2023/12/17 13:59:33;;;;;;;;;;;23.70;99.90;;;;;;4972843;28;19910;-69
2023/12/17 14:02:00;;;;;;;;;;;23.60;99.90;;;;;;4968869;28;19914;-69
2023/12/17 14:04:27;;;;;;;;;;;23.60;99.90;;;;;;4972555;28;19918;-68
2023/12/17 14:06:53;;;;;;;;;;;23.60;99.90;;;;;;4972625;28;19914;-71
2023/12/17 14:09:22;;;;;;;;;;;23.70;99.90;;;;;;4972600;28;19920;-68
2023/12/17 14:11:48;;;;;;;;;;;23.60;99.90;;;;;;4972624;28;20404;-71
2023/12/17 14:14:15;;;;;;;;;;;23.60;99.90;;;;;;4972633;28;20303;-69
2023/12/17 14:16:42;;;;;;;;;;;23.50;99.90;;;;;;4972524;28;19921;-69